sensor_id;sensor_type;location;lat;lon;timestamp;pressure;altitude;pressure_sealevel;temperature;humidity
29941;BME280;16801;53.562;10.038;2023-01-29T00:01:52;102636.84;;;4.79;nan
29941;BME280;16801;53.562;10.038;2023-01-29T00:05:14;102643.25;;;4.50;nan
29941;BME280;16801;53.562;10.038;2023-01-29T00:08:35;102632.56;;;4.50;nan
29941;BME280;16801;53.562;10.038;2023-01-29T00:11:57;102624.34;;;4.56;nan
29941;BME280;16801;53.562;10.038;2023-01-29T00:15:18;102626.34;;;4.50;nan
29941;BME280;16801;53.562;10.038;2023-01-29T00:18:40;102620.56;;;4.37;nan
29941;BME280;16801;53.562;10.038;2023-01-29T00:22:01;102611.53;;;4.41;nan
29941;BME280;16801;53.562;10.038;2023-01-29T00:25:22;102612.78;;;4.56;nan
29941;BME280;16801;53.562;10.038;2023-01-29T00:28:45;102598.81;;;4.48;nan
29941;BME280;16801;53.562;10.038;2023-01-29T00:32:05;102597.50;;;4.35;nan
29941;BME280;16801;53.562;10.038;2023-01-29T00:35:28;102583.94;;;4.16;nan
29941;BME280;16801;53.562;10.038;2023-01-29T00:38:53;102580.56;;;4.11;nan
29941;BME280;16801;53.562;10.038;2023-01-29T00:42:17;102569.91;;;4.36;nan
29941;BME280;16801;53.562;10.038;2023-01-29T00:46:02;102576.91;;;4.38;nan
29941;BME280;16801;53.562;10.038;2023-01-29T00:49:25;102584.81;;;4.41;nan
29941;BME280;16801;53.562;10.038;2023-01-29T00:52:46;102587.59;;;4.38;nan
29941;BME280;16801;53.562;10.038;2023-01-29T00:56:08;102578.53;;;4.42;nan
29941;BME280;16801;53.562;10.038;2023-01-29T00:59:29;102588.38;;;4.42;nan
29941;BME280;16801;53.562;10.038;2023-01-29T01:02:51;102586.16;;;4.53;nan
29941;BME280;16801;53.562;10.038;2023-01-29T01:06:27;102591.25;;;4.60;nan
29941;BME280;16801;53.562;10.038;2023-01-29T01:09:49;102592.88;;;4.64;nan
29941;BME280;16801;53.562;10.038;2023-01-29T01:13:27;102591.72;;;4.47;nan
29941;BME280;16801;53.562;10.038;2023-01-29T01:16:50;102592.50;;;4.50;nan
29941;BME280;16801;53.562;10.038;2023-01-29T01:20:13;102590.66;;;4.52;nan
29941;BME280;16801;53.562;10.038;2023-01-29T01:23:34;102595.41;;;4.67;nan
29941;BME280;16801;53.562;10.038;2023-01-29T01:26:54;102582.06;;;4.67;nan
29941;BME280;16801;53.562;10.038;2023-01-29T01:30:15;102585.41;;;4.49;nan
29941;BME280;16801;53.562;10.038;2023-01-29T01:33:37;102596.28;;;4.68;nan
29941;BME280;16801;53.562;10.038;2023-01-29T01:36:59;102599.78;;;4.93;nan
29941;BME280;16801;53.562;10.038;2023-01-29T01:40:21;102608.28;;;4.81;nan
29941;BME280;16801;53.562;10.038;2023-01-29T01:43:52;102593.78;;;4.88;nan
29941;BME280;16801;53.562;10.038;2023-01-29T01:47:13;102588.13;;;4.96;nan
29941;BME280;16801;53.562;10.038;2023-01-29T01:50:37;102591.72;;;4.95;nan
29941;BME280;16801;53.562;10.038;2023-01-29T01:54:06;102589.16;;;4.92;nan
29941;BME280;16801;53.562;10.038;2023-01-29T01:57:30;102591.75;;;4.70;nan
29941;BME280;16801;53.562;10.038;2023-01-29T02:00:51;102589.63;;;4.56;nan
29941;BME280;16801;53.562;10.038;2023-01-29T02:04:14;102581.31;;;4.64;nan
29941;BME280;16801;53.562;10.038;2023-01-29T02:07:53;102575.66;;;4.71;nan
29941;BME280;16801;53.562;10.038;2023-01-29T02:11:33;102578.75;;;4.84;nan
29941;BME280;16801;53.562;10.038;2023-01-29T02:14:54;102565.63;;;4.78;nan
29941;BME280;16801;53.562;10.038;2023-01-29T02:18:16;102573.41;;;4.84;nan
29941;BME280;16801;53.562;10.038;2023-01-29T02:22:02;102573.22;;;4.65;nan
29941;BME280;16801;53.562;10.038;2023-01-29T02:25:42;102568.38;;;4.76;nan
29941;BME280;16801;53.562;10.038;2023-01-29T02:29:12;102569.75;;;4.63;nan
29941;BME280;16801;53.562;10.038;2023-01-29T02:32:52;102558.97;;;4.90;nan
29941;BME280;16801;53.562;10.038;2023-01-29T02:36:23;102557.81;;;4.73;nan
29941;BME280;16801;53.562;10.038;2023-01-29T02:39:51;102547.81;;;4.55;nan
29941;BME280;16801;53.562;10.038;2023-01-29T02:43:26;102556.59;;;4.59;nan
29941;BME280;16801;53.562;10.038;2023-01-29T02:46:56;102548.22;;;4.68;nan
29941;BME280;16801;53.562;10.038;2023-01-29T02:50:26;102561.53;;;4.45;nan
29941;BME280;16801;53.562;10.038;2023-01-29T02:53:54;102538.41;;;4.45;nan
29941;BME280;16801;53.562;10.038;2023-01-29T02:57:20;102535.72;;;4.45;nan
29941;BME280;16801;53.562;10.038;2023-01-29T03:00:44;102536.78;;;4.41;nan
29941;BME280;16801;53.562;10.038;2023-01-29T03:04:10;102524.47;;;4.60;nan
29941;BME280;16801;53.562;10.038;2023-01-29T03:07:36;102516.72;;;4.53;nan
29941;BME280;16801;53.562;10.038;2023-01-29T03:11:09;102507.88;;;4.52;nan
29941;BME280;16801;53.562;10.038;2023-01-29T03:14:34;102514.25;;;4.71;nan
29941;BME280;16801;53.562;10.038;2023-01-29T03:18:23;102489.06;;;4.55;nan
29941;BME280;16801;53.562;10.038;2023-01-29T03:21:51;102504.66;;;4.66;nan
29941;BME280;16801;53.562;10.038;2023-01-29T03:25:20;102496.41;;;4.49;nan
29941;BME280;16801;53.562;10.038;2023-01-29T03:29:00;102495.50;;;4.73;nan
29941;BME280;16801;53.562;10.038;2023-01-29T03:32:41;102493.81;;;4.70;nan
29941;BME280;16801;53.562;10.038;2023-01-29T03:36:08;102484.59;;;4.79;nan
29941;BME280;16801;53.562;10.038;2023-01-29T03:39:31;102479.47;;;4.95;nan
29941;BME280;16801;53.562;10.038;2023-01-29T03:43:01;102486.28;;;4.81;nan
29941;BME280;16801;53.562;10.038;2023-01-29T03:46:30;102484.28;;;4.63;nan
29941;BME280;16801;53.562;10.038;2023-01-29T03:49:58;102489.22;;;4.74;nan
29941;BME280;16801;53.562;10.038;2023-01-29T03:53:23;102487.25;;;4.56;nan
29941;BME280;16801;53.562;10.038;2023-01-29T03:56:55;102486.97;;;4.63;nan
29941;BME280;16801;53.562;10.038;2023-01-29T04:00:19;102475.19;;;4.69;nan
29941;BME280;16801;53.562;10.038;2023-01-29T04:03:54;102474.00;;;4.53;nan
29941;BME280;16801;53.562;10.038;2023-01-29T04:07:19;102474.66;;;4.59;nan
29941;BME280;16801;53.562;10.038;2023-01-29T04:10:48;102468.81;;;4.50;nan
29941;BME280;16801;53.562;10.038;2023-01-29T04:14:14;102469.03;;;4.44;nan
29941;BME280;16801;53.562;10.038;2023-01-29T04:17:39;102469.03;;;4.44;nan
29941;BME280;16801;53.562;10.038;2023-01-29T04:21:13;102456.19;;;4.30;nan
29941;BME280;16801;53.562;10.038;2023-01-29T04:24:34;102451.66;;;4.55;nan
29941;BME280;16801;53.562;10.038;2023-01-29T04:28:02;102463.63;;;4.45;nan
29941;BME280;16801;53.562;10.038;2023-01-29T04:31:30;102460.16;;;4.66;nan
29941;BME280;16801;53.562;10.038;2023-01-29T04:34:59;102458.16;;;4.71;nan
29941;BME280;16801;53.562;10.038;2023-01-29T04:38:31;102459.09;;;4.70;nan
29941;BME280;16801;53.562;10.038;2023-01-29T04:41:58;102464.38;;;4.72;nan
29941;BME280;16801;53.562;10.038;2023-01-29T04:45:29;102470.94;;;4.63;nan
29941;BME280;16801;53.562;10.038;2023-01-29T04:49:05;102475.03;;;4.95;nan
29941;BME280;16801;53.562;10.038;2023-01-29T04:52:38;102479.97;;;4.61;nan
29941;BME280;16801;53.562;10.038;2023-01-29T04:56:07;102487.97;;;4.61;nan
29941;BME280;16801;53.562;10.038;2023-01-29T04:59:34;102481.50;;;4.66;nan
29941;BME280;16801;53.562;10.038;2023-01-29T05:02:59;102478.44;;;4.77;nan
29941;BME280;16801;53.562;10.038;2023-01-29T05:06:23;102488.88;;;4.37;nan
29941;BME280;16801;53.562;10.038;2023-01-29T05:09:45;102469.38;;;4.58;nan
29941;BME280;16801;53.562;10.038;2023-01-29T05:13:10;102471.06;;;4.37;nan
29941;BME280;16801;53.562;10.038;2023-01-29T05:16:36;102459.03;;;4.49;nan
29941;BME280;16801;53.562;10.038;2023-01-29T05:20:00;102446.25;;;4.57;nan
29941;BME280;16801;53.562;10.038;2023-01-29T05:23:23;102445.59;;;4.29;nan
29941;BME280;16801;53.562;10.038;2023-01-29T05:26:45;102450.53;;;4.39;nan
29941;BME280;16801;53.562;10.038;2023-01-29T05:30:24;102451.50;;;4.37;nan
29941;BME280;16801;53.562;10.038;2023-01-29T05:33:45;102460.22;;;4.42;nan
29941;BME280;16801;53.562;10.038;2023-01-29T05:37:06;102455.47;;;4.50;nan
29941;BME280;16801;53.562;10.038;2023-01-29T05:40:28;102444.13;;;4.43;nan
29941;BME280;16801;53.562;10.038;2023-01-29T05:43:49;102440.56;;;4.21;nan
29941;BME280;16801;53.562;10.038;2023-01-29T05:47:10;102440.94;;;4.11;nan
29941;BME280;16801;53.562;10.038;2023-01-29T05:50:31;102434.84;;;4.53;nan
29941;BME280;16801;53.562;10.038;2023-01-29T05:53:51;102437.75;;;4.47;nan
29941;BME280;16801;53.562;10.038;2023-01-29T05:57:18;102454.09;;;4.38;nan
29941;BME280;16801;53.562;10.038;2023-01-29T06:00:39;102444.63;;;4.31;nan
29941;BME280;16801;53.562;10.038;2023-01-29T06:04:00;102452.94;;;4.68;nan
29941;BME280;16801;53.562;10.038;2023-01-29T06:07:21;102462.91;;;4.86;nan
29941;BME280;16801;53.562;10.038;2023-01-29T06:10:42;102442.59;;;4.38;nan
29941;BME280;16801;53.562;10.038;2023-01-29T06:14:05;102447.31;;;4.53;nan
29941;BME280;16801;53.562;10.038;2023-01-29T06:17:26;102438.38;;;4.54;nan
29941;BME280;16801;53.562;10.038;2023-01-29T06:20:46;102415.59;;;4.22;nan
29941;BME280;16801;53.562;10.038;2023-01-29T06:24:07;102408.56;;;4.43;nan
29941;BME280;16801;53.562;10.038;2023-01-29T06:27:28;102420.84;;;4.47;nan
29941;BME280;16801;53.562;10.038;2023-01-29T06:30:50;102415.75;;;4.41;nan
29941;BME280;16801;53.562;10.038;2023-01-29T06:34:11;102405.19;;;4.61;nan
29941;BME280;16801;53.562;10.038;2023-01-29T06:37:32;102400.38;;;4.47;nan
29941;BME280;16801;53.562;10.038;2023-01-29T06:40:53;102390.16;;;4.58;nan
29941;BME280;16801;53.562;10.038;2023-01-29T06:44:15;102378.13;;;4.47;nan
29941;BME280;16801;53.562;10.038;2023-01-29T06:47:37;102391.31;;;4.51;nan
29941;BME280;16801;53.562;10.038;2023-01-29T06:51:00;102386.91;;;4.50;nan
29941;BME280;16801;53.562;10.038;2023-01-29T06:54:22;102382.16;;;4.35;nan
29941;BME280;16801;53.562;10.038;2023-01-29T06:57:43;102370.75;;;4.53;nan
29941;BME280;16801;53.562;10.038;2023-01-29T07:01:04;102381.25;;;4.58;nan
29941;BME280;16801;53.562;10.038;2023-01-29T07:04:27;102378.66;;;4.56;nan
29941;BME280;16801;53.562;10.038;2023-01-29T07:07:48;102375.66;;;4.64;nan
29941;BME280;16801;53.562;10.038;2023-01-29T07:11:10;102379.78;;;4.72;nan
29941;BME280;16801;53.562;10.038;2023-01-29T07:14:31;102376.66;;;4.61;nan
29941;BME280;16801;53.562;10.038;2023-01-29T07:17:56;102384.28;;;4.49;nan
29941;BME280;16801;53.562;10.038;2023-01-29T07:21:18;102388.59;;;4.74;nan
29941;BME280;16801;53.562;10.038;2023-01-29T07:24:39;102389.09;;;4.62;nan
29941;BME280;16801;53.562;10.038;2023-01-29T07:28:00;102386.59;;;4.58;nan
29941;BME280;16801;53.562;10.038;2023-01-29T07:31:22;102384.38;;;4.69;nan
29941;BME280;16801;53.562;10.038;2023-01-29T07:34:42;102388.47;;;4.56;nan
29941;BME280;16801;53.562;10.038;2023-01-29T07:38:05;102371.56;;;4.55;nan
29941;BME280;16801;53.562;10.038;2023-01-29T07:41:26;102361.63;;;4.37;nan
29941;BME280;16801;53.562;10.038;2023-01-29T07:44:48;102347.97;;;4.23;nan
29941;BME280;16801;53.562;10.038;2023-01-29T07:48:10;102341.63;;;4.47;nan
29941;BME280;16801;53.562;10.038;2023-01-29T07:51:32;102341.78;;;4.44;nan
29941;BME280;16801;53.562;10.038;2023-01-29T07:54:54;102351.97;;;4.56;nan
29941;BME280;16801;53.562;10.038;2023-01-29T07:58:15;102355.16;;;4.43;nan
29941;BME280;16801;53.562;10.038;2023-01-29T08:01:36;102337.56;;;4.60;nan
29941;BME280;16801;53.562;10.038;2023-01-29T08:04:57;102359.13;;;4.33;nan
29941;BME280;16801;53.562;10.038;2023-01-29T08:08:18;102350.88;;;4.17;nan
29941;BME280;16801;53.562;10.038;2023-01-29T08:11:40;102345.69;;;4.13;nan
29941;BME280;16801;53.562;10.038;2023-01-29T08:15:01;102340.00;;;4.22;nan
29941;BME280;16801;53.562;10.038;2023-01-29T08:18:22;102350.16;;;4.12;nan
29941;BME280;16801;53.562;10.038;2023-01-29T08:21:43;102347.16;;;4.21;nan
29941;BME280;16801;53.562;10.038;2023-01-29T08:25:04;102355.19;;;4.20;nan
29941;BME280;16801;53.562;10.038;2023-01-29T08:28:27;102346.53;;;4.58;nan
29941;BME280;16801;53.562;10.038;2023-01-29T08:31:48;102349.19;;;4.36;nan
29941;BME280;16801;53.562;10.038;2023-01-29T08:35:09;102339.03;;;4.46;nan
29941;BME280;16801;53.562;10.038;2023-01-29T08:38:30;102338.72;;;4.53;nan
29941;BME280;16801;53.562;10.038;2023-01-29T08:41:51;102336.44;;;4.44;nan
29941;BME280;16801;53.562;10.038;2023-01-29T08:45:13;102329.94;;;4.71;nan
29941;BME280;16801;53.562;10.038;2023-01-29T08:48:34;102337.84;;;4.31;nan
29941;BME280;16801;53.562;10.038;2023-01-29T08:51:55;102346.84;;;4.29;nan
29941;BME280;16801;53.562;10.038;2023-01-29T08:55:16;102341.19;;;4.36;nan
29941;BME280;16801;53.562;10.038;2023-01-29T08:58:37;102342.97;;;4.59;nan
29941;BME280;16801;53.562;10.038;2023-01-29T09:01:59;102341.00;;;4.19;nan
29941;BME280;16801;53.562;10.038;2023-01-29T09:05:20;102334.50;;;4.48;nan
29941;BME280;16801;53.562;10.038;2023-01-29T09:08:41;102340.66;;;4.50;nan
29941;BME280;16801;53.562;10.038;2023-01-29T09:12:03;102355.69;;;4.52;nan
29941;BME280;16801;53.562;10.038;2023-01-29T09:15:24;102343.81;;;4.59;nan
29941;BME280;16801;53.562;10.038;2023-01-29T09:18:46;102342.75;;;4.63;nan
29941;BME280;16801;53.562;10.038;2023-01-29T09:22:07;102324.06;;;4.63;nan
29941;BME280;16801;53.562;10.038;2023-01-29T09:25:28;102334.72;;;4.63;nan
29941;BME280;16801;53.562;10.038;2023-01-29T09:28:49;102332.22;;;4.60;nan
29941;BME280;16801;53.562;10.038;2023-01-29T09:32:11;102317.97;;;4.60;nan
29941;BME280;16801;53.562;10.038;2023-01-29T09:35:34;102312.19;;;4.70;nan
29941;BME280;16801;53.562;10.038;2023-01-29T09:38:56;102310.03;;;4.37;nan
29941;BME280;16801;53.562;10.038;2023-01-29T09:42:21;102325.88;;;4.41;nan
29941;BME280;16801;53.562;10.038;2023-01-29T09:45:51;102313.91;;;4.71;nan
29941;BME280;16801;53.562;10.038;2023-01-29T09:49:19;102310.78;;;4.62;nan
29941;BME280;16801;53.562;10.038;2023-01-29T09:52:47;102314.88;;;4.70;nan
29941;BME280;16801;53.562;10.038;2023-01-29T09:56:12;102297.41;;;4.83;nan
29941;BME280;16801;53.562;10.038;2023-01-29T09:59:34;102283.16;;;4.63;nan
29941;BME280;16801;53.562;10.038;2023-01-29T10:03:14;102272.75;;;4.55;nan
29941;BME280;16801;53.562;10.038;2023-01-29T10:06:50;102263.06;;;4.74;nan
29941;BME280;16801;53.562;10.038;2023-01-29T10:10:29;102276.31;;;4.56;nan
29941;BME280;16801;53.562;10.038;2023-01-29T10:14:02;102268.84;;;4.42;nan
29941;BME280;16801;53.562;10.038;2023-01-29T10:17:35;102258.00;;;4.47;nan
29941;BME280;16801;53.562;10.038;2023-01-29T10:21:06;102260.63;;;4.48;nan
29941;BME280;16801;53.562;10.038;2023-01-29T10:24:35;102236.72;;;4.65;nan
29941;BME280;16801;53.562;10.038;2023-01-29T10:27:59;102238.63;;;4.83;nan
29941;BME280;16801;53.562;10.038;2023-01-29T10:31:24;102239.41;;;5.06;nan
29941;BME280;16801;53.562;10.038;2023-01-29T10:34:53;102219.41;;;5.34;nan
29941;BME280;16801;53.562;10.038;2023-01-29T10:38:25;102215.50;;;5.23;nan
29941;BME280;16801;53.562;10.038;2023-01-29T10:42:00;102221.16;;;5.73;nan
29941;BME280;16801;53.562;10.038;2023-01-29T10:45:30;102200.84;;;5.31;nan
29941;BME280;16801;53.562;10.038;2023-01-29T10:49:00;102204.97;;;5.57;nan
29941;BME280;16801;53.562;10.038;2023-01-29T10:52:37;102207.28;;;5.07;nan
29941;BME280;16801;53.562;10.038;2023-01-29T10:56:11;102195.31;;;5.16;nan
29941;BME280;16801;53.562;10.038;2023-01-29T10:59:49;102201.13;;;5.05;nan
29941;BME280;16801;53.562;10.038;2023-01-29T11:03:16;102196.06;;;5.19;nan
29941;BME280;16801;53.562;10.038;2023-01-29T11:06:37;102187.25;;;5.17;nan
29941;BME280;16801;53.562;10.038;2023-01-29T11:10:02;102184.22;;;5.25;nan
29941;BME280;16801;53.562;10.038;2023-01-29T11:13:30;102174.72;;;5.18;nan
29941;BME280;16801;53.562;10.038;2023-01-29T11:16:52;102179.56;;;5.28;nan
29941;BME280;16801;53.562;10.038;2023-01-29T11:20:25;102168.09;;;5.26;nan
29941;BME280;16801;53.562;10.038;2023-01-29T11:23:46;102177.78;;;5.29;nan
29941;BME280;16801;53.562;10.038;2023-01-29T11:27:13;102173.50;;;5.25;nan
29941;BME280;16801;53.562;10.038;2023-01-29T11:30:37;102168.00;;;5.09;nan
29941;BME280;16801;53.562;10.038;2023-01-29T11:34:02;102167.88;;;5.12;nan
29941;BME280;16801;53.562;10.038;2023-01-29T11:37:33;102157.75;;;5.19;nan
29941;BME280;16801;53.562;10.038;2023-01-29T11:41:04;102149.47;;;5.25;nan
29941;BME280;16801;53.562;10.038;2023-01-29T11:44:28;102154.38;;;5.15;nan
29941;BME280;16801;53.562;10.038;2023-01-29T11:47:52;102143.25;;;5.43;nan
29941;BME280;16801;53.562;10.038;2023-01-29T11:51:20;102154.28;;;5.17;nan
29941;BME280;16801;53.562;10.038;2023-01-29T11:54:47;102134.59;;;5.19;nan
29941;BME280;16801;53.562;10.038;2023-01-29T11:58:14;102144.81;;;5.28;nan
29941;BME280;16801;53.562;10.038;2023-01-29T12:01:37;102124.41;;;5.27;nan
29941;BME280;16801;53.562;10.038;2023-01-29T12:05:04;102117.88;;;5.33;nan
29941;BME280;16801;53.562;10.038;2023-01-29T12:08:31;102114.91;;;5.39;nan
29941;BME280;16801;53.562;10.038;2023-01-29T12:11:54;102094.53;;;5.18;nan
29941;BME280;16801;53.562;10.038;2023-01-29T12:15:21;102105.09;;;5.39;nan
29941;BME280;16801;53.562;10.038;2023-01-29T12:18:47;102092.38;;;5.26;nan
29941;BME280;16801;53.562;10.038;2023-01-29T12:22:14;102088.56;;;5.31;nan
29941;BME280;16801;53.562;10.038;2023-01-29T12:25:42;102078.84;;;5.47;nan
29941;BME280;16801;53.562;10.038;2023-01-29T12:29:24;102084.78;;;5.35;nan
29941;BME280;16801;53.562;10.038;2023-01-29T12:32:48;102078.72;;;5.50;nan
29941;BME280;16801;53.562;10.038;2023-01-29T12:36:18;102075.31;;;5.28;nan
29941;BME280;16801;53.562;10.038;2023-01-29T12:39:41;102055.69;;;5.29;nan
29941;BME280;16801;53.562;10.038;2023-01-29T12:43:08;102051.94;;;5.15;nan
29941;BME280;16801;53.562;10.038;2023-01-29T12:46:37;102051.72;;;5.19;nan
29941;BME280;16801;53.562;10.038;2023-01-29T12:50:02;102036.66;;;5.35;nan
29941;BME280;16801;53.562;10.038;2023-01-29T12:53:27;102038.19;;;5.22;nan
29941;BME280;16801;53.562;10.038;2023-01-29T12:56:52;102029.97;;;5.08;nan
29941;BME280;16801;53.562;10.038;2023-01-29T13:00:19;102031.13;;;5.21;nan
29941;BME280;16801;53.562;10.038;2023-01-29T13:03:48;102016.91;;;5.21;nan
29941;BME280;16801;53.562;10.038;2023-01-29T13:07:13;102008.13;;;5.36;nan
29941;BME280;16801;53.562;10.038;2023-01-29T13:10:42;102002.09;;;5.14;nan
29941;BME280;16801;53.562;10.038;2023-01-29T13:14:08;101993.53;;;5.24;nan
29941;BME280;16801;53.562;10.038;2023-01-29T13:17:35;101986.78;;;5.17;nan
29941;BME280;16801;53.562;10.038;2023-01-29T13:20:59;101991.56;;;5.28;nan
29941;BME280;16801;53.562;10.038;2023-01-29T13:24:23;101981.84;;;5.27;nan
29941;BME280;16801;53.562;10.038;2023-01-29T13:27:45;101990.53;;;5.13;nan
29941;BME280;16801;53.562;10.038;2023-01-29T13:31:20;101982.94;;;5.23;nan
29941;BME280;16801;53.562;10.038;2023-01-29T13:34:44;101983.53;;;5.11;nan
29941;BME280;16801;53.562;10.038;2023-01-29T13:38:21;101986.28;;;5.45;nan
29941;BME280;16801;53.562;10.038;2023-01-29T13:41:42;101972.28;;;5.40;nan
29941;BME280;16801;53.562;10.038;2023-01-29T13:45:06;101962.47;;;5.57;nan
29941;BME280;16801;53.562;10.038;2023-01-29T13:48:30;101958.56;;;5.29;nan
29941;BME280;16801;53.562;10.038;2023-01-29T13:51:56;101975.44;;;5.12;nan
29941;BME280;16801;53.562;10.038;2023-01-29T13:55:28;101954.28;;;5.43;nan
29941;BME280;16801;53.562;10.038;2023-01-29T13:58:52;101952.31;;;5.11;nan
29941;BME280;16801;53.562;10.038;2023-01-29T14:02:24;101953.63;;;5.21;nan
29941;BME280;16801;53.562;10.038;2023-01-29T14:05:56;101938.94;;;5.30;nan
29941;BME280;16801;53.562;10.038;2023-01-29T14:13:33;101935.50;;;5.09;nan
29941;BME280;16801;53.562;10.038;2023-01-29T14:16:59;101923.88;;;5.10;nan
29941;BME280;16801;53.562;10.038;2023-01-29T14:20:23;101913.44;;;5.23;nan
29941;BME280;16801;53.562;10.038;2023-01-29T14:23:47;101908.06;;;5.06;nan
29941;BME280;16801;53.562;10.038;2023-01-29T14:27:18;101910.84;;;5.21;nan
29941;BME280;16801;53.562;10.038;2023-01-29T14:30:45;101888.63;;;5.38;nan
29941;BME280;16801;53.562;10.038;2023-01-29T14:34:15;101889.47;;;5.21;nan
29941;BME280;16801;53.562;10.038;2023-01-29T14:37:39;101886.94;;;5.18;nan
29941;BME280;16801;53.562;10.038;2023-01-29T14:41:04;101894.19;;;5.33;nan
29941;BME280;16801;53.562;10.038;2023-01-29T14:44:45;101893.88;;;5.22;nan
29941;BME280;16801;53.562;10.038;2023-01-29T14:51:55;101878.53;;;5.26;nan
29941;BME280;16801;53.562;10.038;2023-01-29T14:55:34;101889.13;;;5.10;nan
29941;BME280;16801;53.562;10.038;2023-01-29T14:59:10;101873.72;;;5.32;nan
29941;BME280;16801;53.562;10.038;2023-01-29T15:02:37;101871.97;;;4.97;nan
29941;BME280;16801;53.562;10.038;2023-01-29T15:06:12;101856.38;;;5.07;85.40
29941;BME280;16801;53.562;10.038;2023-01-29T15:09:39;101867.34;;;5.01;85.55
29941;BME280;16801;53.562;10.038;2023-01-29T15:13:07;101853.97;;;5.01;86.71
29941;BME280;16801;53.562;10.038;2023-01-29T15:16:41;101856.81;;;4.98;86.07
29941;BME280;16801;53.562;10.038;2023-01-29T15:20:24;101861.47;;;4.94;85.97
29941;BME280;16801;53.562;10.038;2023-01-29T15:23:47;101857.91;;;4.94;86.01
29941;BME280;16801;53.562;10.038;2023-01-29T15:27:22;101851.25;;;5.02;86.13
29941;BME280;16801;53.562;10.038;2023-01-29T15:30:43;101835.38;;;4.99;86.32
29941;BME280;16801;53.562;10.038;2023-01-29T15:34:05;101835.06;;;4.88;87.04
29941;BME280;16801;53.562;10.038;2023-01-29T15:37:29;101819.81;;;4.90;86.17
29941;BME280;16801;53.562;10.038;2023-01-29T15:40:52;101815.88;;;4.97;86.52
29941;BME280;16801;53.562;10.038;2023-01-29T15:44:16;101817.66;;;4.97;86.55
29941;BME280;16801;53.562;10.038;2023-01-29T15:47:38;101806.84;;;5.00;86.71
29941;BME280;16801;53.562;10.038;2023-01-29T15:50:59;101806.84;;;5.17;86.35
29941;BME280;16801;53.562;10.038;2023-01-29T15:54:23;101802.75;;;4.93;87.32
29941;BME280;16801;53.562;10.038;2023-01-29T15:57:47;101790.03;;;4.98;86.91
29941;BME280;16801;53.562;10.038;2023-01-29T16:01:08;101789.25;;;4.96;86.58
29941;BME280;16801;53.562;10.038;2023-01-29T16:04:30;101785.13;;;4.88;86.73
29941;BME280;16801;53.562;10.038;2023-01-29T16:07:53;101797.09;;;4.99;86.26
29941;BME280;16801;53.562;10.038;2023-01-29T16:11:16;101787.69;;;4.92;86.02
29941;BME280;16801;53.562;10.038;2023-01-29T16:14:40;101787.28;;;4.99;85.76
29941;BME280;16801;53.562;10.038;2023-01-29T16:18:03;101779.44;;;4.96;85.82
29941;BME280;16801;53.562;10.038;2023-01-29T16:21:41;101784.91;;;4.93;84.72
29941;BME280;16801;53.562;10.038;2023-01-29T16:25:06;101776.25;;;5.22;84.27
29941;BME280;16801;53.562;10.038;2023-01-29T16:28:32;101776.44;;;5.19;83.83
29941;BME280;16801;53.562;10.038;2023-01-29T16:31:55;101772.59;;;4.73;85.20
29941;BME280;16801;53.562;10.038;2023-01-29T16:35:20;101780.75;;;4.70;85.58
29941;BME280;16801;53.562;10.038;2023-01-29T16:38:41;101761.84;;;4.92;85.15
29941;BME280;16801;53.562;10.038;2023-01-29T16:42:21;101774.41;;;4.90;84.72
29941;BME280;16801;53.562;10.038;2023-01-29T16:46:00;101751.19;;;4.91;84.99
29941;BME280;16801;53.562;10.038;2023-01-29T16:49:42;101773.44;;;5.08;84.10
29941;BME280;16801;53.562;10.038;2023-01-29T16:53:11;101746.19;;;5.02;85.12
29941;BME280;16801;53.562;10.038;2023-01-29T16:56:33;101728.94;;;5.07;84.91
29941;BME280;16801;53.562;10.038;2023-01-29T16:59:56;101720.09;;;4.90;85.44
29941;BME280;16801;53.562;10.038;2023-01-29T17:03:18;101742.03;;;4.96;86.24
29941;BME280;16801;53.562;10.038;2023-01-29T17:06:42;101732.50;;;4.91;86.21
29941;BME280;16801;53.562;10.038;2023-01-29T17:10:05;101722.00;;;4.70;85.93
29941;BME280;16801;53.562;10.038;2023-01-29T17:13:29;101716.31;;;4.94;85.50
29941;BME280;16801;53.562;10.038;2023-01-29T17:16:55;101708.31;;;4.76;85.51
29941;BME280;16801;53.562;10.038;2023-01-29T17:20:21;101691.03;;;4.83;85.07
29941;BME280;16801;53.562;10.038;2023-01-29T17:23:43;101695.06;;;4.75;85.79
29941;BME280;16801;53.562;10.038;2023-01-29T17:27:04;101725.91;;;4.80;85.68
29941;BME280;16801;53.562;10.038;2023-01-29T17:30:29;101696.53;;;4.80;86.00
29941;BME280;16801;53.562;10.038;2023-01-29T17:33:52;101679.72;;;4.96;85.62
29941;BME280;16801;53.562;10.038;2023-01-29T17:37:13;101700.16;;;4.79;85.31
29941;BME280;16801;53.562;10.038;2023-01-29T17:40:39;101688.75;;;4.76;85.80
29941;BME280;16801;53.562;10.038;2023-01-29T17:44:00;101669.34;;;4.90;86.01
29941;BME280;16801;53.562;10.038;2023-01-29T17:47:21;101678.25;;;4.73;86.96
29941;BME280;16801;53.562;10.038;2023-01-29T17:50:43;101680.78;;;5.41;84.26
29941;BME280;16801;53.562;10.038;2023-01-29T17:54:07;101655.75;;;5.27;84.44
29941;BME280;16801;53.562;10.038;2023-01-29T17:57:29;101667.28;;;4.95;85.48
29941;BME280;16801;53.562;10.038;2023-01-29T18:00:51;101645.09;;;4.77;86.65
29941;BME280;16801;53.562;10.038;2023-01-29T18:04:13;101658.03;;;4.67;86.63
29941;BME280;16801;53.562;10.038;2023-01-29T18:07:34;101655.69;;;4.78;86.54
29941;BME280;16801;53.562;10.038;2023-01-29T18:10:56;101637.13;;;5.41;84.82
29941;BME280;16801;53.562;10.038;2023-01-29T18:14:18;101618.94;;;4.83;86.16
29941;BME280;16801;53.562;10.038;2023-01-29T18:17:40;101635.50;;;4.73;86.37
29941;BME280;16801;53.562;10.038;2023-01-29T18:21:01;101605.19;;;5.07;85.27
29941;BME280;16801;53.562;10.038;2023-01-29T18:24:22;101618.19;;;4.97;85.54
29941;BME280;16801;53.562;10.038;2023-01-29T18:27:45;101591.59;;;4.78;86.50